sensor_id;sensor_type;location;lat;lon;timestamp;temperature;humidity
9810;DHT22;4944;52.514;13.192;2023-11-19T00:00:51;5.40;99.90
9810;DHT22;4944;52.514;13.192;2023-11-19T00:03:18;5.30;99.90
9810;DHT22;4944;52.514;13.192;2023-11-19T00:05:47;5.40;99.90
9810;DHT22;4944;52.514;13.192;2023-11-19T00:08:14;5.40;99.90
9810;DHT22;4944;52.514;13.192;2023-11-19T00:10:41;5.40;99.90
9810;DHT22;4944;52.514;13.192;2023-11-19T00:13:07;5.40;99.90
9810;DHT22;4944;52.514;13.192;2023-11-19T00:15:35;5.30;99.90
9810;DHT22;4944;52.514;13.192;2023-11-19T00:18:03;5.40;99.90
9810;DHT22;4944;52.514;13.192;2023-11-19T00:20:30;5.40;99.90
9810;DHT22;4944;52.514;13.192;2023-11-19T00:22:58;5.40;99.90
9810;DHT22;4944;52.514;13.192;2023-11-19T00:25:27;5.40;99.90
9810;DHT22;4944;52.514;13.192;2023-11-19T00:27:53;5.40;99.90
9810;DHT22;4944;52.514;13.192;2023-11-19T00:30:22;5.40;99.90
9810;DHT22;4944;52.514;13.192;2023-11-19T00:32:48;5.40;99.90
9810;DHT22;4944;52.514;13.192;2023-11-19T00:35:15;5.40;99.90
9810;DHT22;4944;52.514;13.192;2023-11-19T00:37:42;5.40;99.90
9810;DHT22;4944;52.514;13.192;2023-11-19T00:40:12;5.40;99.90
9810;DHT22;4944;52.514;13.192;2023-11-19T00:42:41;5.40;99.90
9810;DHT22;4944;52.514;13.192;2023-11-19T00:45:09;5.40;99.90
9810;DHT22;4944;52.514;13.192;2023-11-19T00:47:37;5.40;99.90
9810;DHT22;4944;52.514;13.192;2023-11-19T00:50:05;5.40;99.90
9810;DHT22;4944;52.514;13.192;2023-11-19T00:52:34;5.40;99.90
9810;DHT22;4944;52.514;13.192;2023-11-19T00:55:02;5.40;99.90
9810;DHT22;4944;52.514;13.192;2023-11-19T00:57:31;5.50;99.90
9810;DHT22;4944;52.514;13.192;2023-11-19T00:59:58;5.50;99.90
9810;DHT22;4944;52.514;13.192;2023-11-19T01:02:25;5.50;99.90
9810;DHT22;4944;52.514;13.192;2023-11-19T01:04:52;5.50;99.90
9810;DHT22;4944;52.514;13.192;2023-11-19T01:07:19;5.40;99.90
9810;DHT22;4944;52.514;13.192;2023-11-19T01:09:47;5.50;99.90
9810;DHT22;4944;52.514;13.192;2023-11-19T01:12:14;5.50;99.90
9810;DHT22;4944;52.514;13.192;2023-11-19T01:14:42;5.50;99.90
9810;DHT22;4944;52.514;13.192;2023-11-19T01:17:09;5.50;99.90
9810;DHT22;4944;52.514;13.192;2023-11-19T01:19:36;5.50;99.90
9810;DHT22;4944;52.514;13.192;2023-11-19T01:22:03;5.50;99.90
9810;DHT22;4944;52.514;13.192;2023-11-19T01:24:30;5.50;99.90
9810;DHT22;4944;52.514;13.192;2023-11-19T01:26:57;5.50;99.90
9810;DHT22;4944;52.514;13.192;2023-11-19T01:29:25;5.50;99.90
9810;DHT22;4944;52.514;13.192;2023-11-19T01:31:53;5.50;99.90
9810;DHT22;4944;52.514;13.192;2023-11-19T01:34:20;5.50;99.90
9810;DHT22;4944;52.514;13.192;2023-11-19T01:36:47;5.50;99.90
9810;DHT22;4944;52.514;13.192;2023-11-19T01:39:14;5.50;99.90
9810;DHT22;4944;52.514;13.192;2023-11-19T01:41:42;5.60;99.90
9810;DHT22;4944;52.514;13.192;2023-11-19T01:44:09;5.50;99.90
9810;DHT22;4944;52.514;13.192;2023-11-19T01:46:39;5.50;99.90
9810;DHT22;4944;52.514;13.192;2023-11-19T01:49:08;5.50;99.90
9810;DHT22;4944;52.514;13.192;2023-11-19T01:51:38;5.50;99.90
9810;DHT22;4944;52.514;13.192;2023-11-19T01:54:05;5.50;99.90
9810;DHT22;4944;52.514;13.192;2023-11-19T01:56:34;5.50;99.90
9810;DHT22;4944;52.514;13.192;2023-11-19T01:59:02;5.50;99.90
9810;DHT22;4944;52.514;13.192;2023-11-19T02:01:29;5.50;99.90
9810;DHT22;4944;52.514;13.192;2023-11-19T02:03:58;5.50;99.90
9810;DHT22;4944;52.514;13.192;2023-11-19T02:06:27;5.50;99.90
9810;DHT22;4944;52.514;13.192;2023-11-19T02:08:55;5.40;99.90
9810;DHT22;4944;52.514;13.192;2023-11-19T02:11:22;5.50;99.90
9810;DHT22;4944;52.514;13.192;2023-11-19T02:13:49;5.40;99.90
9810;DHT22;4944;52.514;13.192;2023-11-19T02:16:16;5.50;99.90
9810;DHT22;4944;52.514;13.192;2023-11-19T02:18:43;5.40;99.90
9810;DHT22;4944;52.514;13.192;2023-11-19T02:21:10;5.40;99.90
9810;DHT22;4944;52.514;13.192;2023-11-19T02:23:38;5.50;99.90
9810;DHT22;4944;52.514;13.192;2023-11-19T02:26:12;5.50;99.90
9810;DHT22;4944;52.514;13.192;2023-11-19T02:28:42;5.40;99.90
9810;DHT22;4944;52.514;13.192;2023-11-19T02:31:09;5.50;99.90
9810;DHT22;4944;52.514;13.192;2023-11-19T02:33:37;5.50;99.90
9810;DHT22;4944;52.514;13.192;2023-11-19T02:36:04;5.50;99.90
9810;DHT22;4944;52.514;13.192;2023-11-19T02:38:32;5.50;99.90
9810;DHT22;4944;52.514;13.192;2023-11-19T02:41:01;5.50;99.90
9810;DHT22;4944;52.514;13.192;2023-11-19T02:43:30;5.50;99.90
9810;DHT22;4944;52.514;13.192;2023-11-19T02:46:00;5.50;99.90
9810;DHT22;4944;52.514;13.192;2023-11-19T02:48:27;5.50;99.90
9810;DHT22;4944;52.514;13.192;2023-11-19T02:50:56;5.50;99.90
9810;DHT22;4944;52.514;13.192;2023-11-19T02:53:24;5.60;99.90
9810;DHT22;4944;52.514;13.192;2023-11-19T02:55:53;5.60;99.90
9810;DHT22;4944;52.514;13.192;2023-11-19T02:58:26;5.60;99.90
9810;DHT22;4944;52.514;13.192;2023-11-19T03:00:54;5.60;99.90
9810;DHT22;4944;52.514;13.192;2023-11-19T03:03:24;5.60;99.90
9810;DHT22;4944;52.514;13.192;2023-11-19T03:05:54;5.60;99.90
9810;DHT22;4944;52.514;13.192;2023-11-19T03:08:21;5.60;99.90
9810;DHT22;4944;52.514;13.192;2023-11-19T03:10:49;5.60;99.90
9810;DHT22;4944;52.514;13.192;2023-11-19T03:13:16;5.60;99.90
9810;DHT22;4944;52.514;13.192;2023-11-19T03:15:43;5.60;99.90
9810;DHT22;4944;52.514;13.192;2023-11-19T03:18:10;5.60;99.90
9810;DHT22;4944;52.514;13.192;2023-11-19T03:20:38;5.60;99.90
9810;DHT22;4944;52.514;13.192;2023-11-19T03:23:06;5.60;99.90
9810;DHT22;4944;52.514;13.192;2023-11-19T03:25:32;5.50;99.90
9810;DHT22;4944;52.514;13.192;2023-11-19T03:28:00;5.60;99.90
9810;DHT22;4944;52.514;13.192;2023-11-19T03:30:27;5.50;99.90
9810;DHT22;4944;52.514;13.192;2023-11-19T03:32:55;5.50;99.90
9810;DHT22;4944;52.514;13.192;2023-11-19T03:35:22;5.50;99.90
9810;DHT22;4944;52.514;13.192;2023-11-19T03:37:50;5.40;99.90
9810;DHT22;4944;52.514;13.192;2023-11-19T03:40:17;5.40;99.90
9810;DHT22;4944;52.514;13.192;2023-11-19T03:42:45;5.40;99.90
9810;DHT22;4944;52.514;13.192;2023-11-19T03:45:12;5.30;99.90
9810;DHT22;4944;52.514;13.192;2023-11-19T03:47:40;5.30;99.90
9810;DHT22;4944;52.514;13.192;2023-11-19T03:50:07;5.30;99.90
9810;DHT22;4944;52.514;13.192;2023-11-19T03:52:34;5.30;99.90
9810;DHT22;4944;52.514;13.192;2023-11-19T03:55:03;5.30;99.90
9810;DHT22;4944;52.514;13.192;2023-11-19T03:57:31;5.30;99.90
9810;DHT22;4944;52.514;13.192;2023-11-19T03:59:58;5.20;99.90
9810;DHT22;4944;52.514;13.192;2023-11-19T04:02:25;5.20;99.90
9810;DHT22;4944;52.514;13.192;2023-11-19T04:04:54;5.20;99.90
9810;DHT22;4944;52.514;13.192;2023-11-19T04:07:21;5.20;99.90
9810;DHT22;4944;52.514;13.192;2023-11-19T04:09:48;5.20;99.90
9810;DHT22;4944;52.514;13.192;2023-11-19T04:12:17;5.20;99.90
9810;DHT22;4944;52.514;13.192;2023-11-19T04:14:43;5.20;99.90
9810;DHT22;4944;52.514;13.192;2023-11-19T04:17:10;5.20;99.90
9810;DHT22;4944;52.514;13.192;2023-11-19T04:19:37;5.20;99.90
9810;DHT22;4944;52.514;13.192;2023-11-19T04:22:06;5.20;99.90
9810;DHT22;4944;52.514;13.192;2023-11-19T04:24:33;5.20;99.90
9810;DHT22;4944;52.514;13.192;2023-11-19T04:27:00;5.10;99.90
9810;DHT22;4944;52.514;13.192;2023-11-19T04:29:30;5.20;99.90
9810;DHT22;4944;52.514;13.192;2023-11-19T04:31:57;5.20;99.90
9810;DHT22;4944;52.514;13.192;2023-11-19T04:34:24;5.20;99.90
9810;DHT22;4944;52.514;13.192;2023-11-19T04:36:51;5.20;99.90
9810;DHT22;4944;52.514;13.192;2023-11-19T04:39:18;5.20;99.90
9810;DHT22;4944;52.514;13.192;2023-11-19T04:41:48;5.20;99.90
9810;DHT22;4944;52.514;13.192;2023-11-19T04:44:15;5.20;99.90
9810;DHT22;4944;52.514;13.192;2023-11-19T04:46:44;5.20;99.90
9810;DHT22;4944;52.514;13.192;2023-11-19T04:49:12;5.10;99.90
9810;DHT22;4944;52.514;13.192;2023-11-19T04:51:41;5.10;99.90
9810;DHT22;4944;52.514;13.192;2023-11-19T04:54:09;5.10;99.90
9810;DHT22;4944;52.514;13.192;2023-11-19T04:56:36;5.10;99.90
9810;DHT22;4944;52.514;13.192;2023-11-19T04:59:03;5.10;99.90
9810;DHT22;4944;52.514;13.192;2023-11-19T05:01:31;5.10;99.90
9810;DHT22;4944;52.514;13.192;2023-11-19T05:04:00;5.10;99.90
9810;DHT22;4944;52.514;13.192;2023-11-19T05:06:27;5.10;99.90
9810;DHT22;4944;52.514;13.192;2023-11-19T05:08:55;5.10;99.90
9810;DHT22;4944;52.514;13.192;2023-11-19T05:11:22;5.10;99.90
9810;DHT22;4944;52.514;13.192;2023-11-19T05:13:49;5.10;99.90
9810;DHT22;4944;52.514;13.192;2023-11-19T05:16:16;5.10;99.90
9810;DHT22;4944;52.514;13.192;2023-11-19T05:18:43;5.10;99.90
9810;DHT22;4944;52.514;13.192;2023-11-19T05:21:11;5.10;99.90
9810;DHT22;4944;52.514;13.192;2023-11-19T05:23:39;5.10;99.90
9810;DHT22;4944;52.514;13.192;2023-11-19T05:26:07;5.10;99.90
9810;DHT22;4944;52.514;13.192;2023-11-19T05:28:37;5.10;99.90
9810;DHT22;4944;52.514;13.192;2023-11-19T05:31:05;5.10;99.90
9810;DHT22;4944;52.514;13.192;2023-11-19T05:33:32;5.10;99.90
9810;DHT22;4944;52.514;13.192;2023-11-19T05:35:59;5.10;99.90
9810;DHT22;4944;52.514;13.192;2023-11-19T05:38:30;5.10;99.90
9810;DHT22;4944;52.514;13.192;2023-11-19T05:40:57;5.10;99.90
9810;DHT22;4944;52.514;13.192;2023-11-19T05:43:24;5.10;99.90
9810;DHT22;4944;52.514;13.192;2023-11-19T05:45:51;5.10;99.90
9810;DHT22;4944;52.514;13.192;2023-11-19T05:48:17;5.10;99.90
9810;DHT22;4944;52.514;13.192;2023-11-19T05:50:44;5.10;99.90
9810;DHT22;4944;52.514;13.192;2023-11-19T05:53:11;5.10;99.90
9810;DHT22;4944;52.514;13.192;2023-11-19T05:55:41;5.10;99.90
9810;DHT22;4944;52.514;13.192;2023-11-19T05:58:14;5.10;99.90
9810;DHT22;4944;52.514;13.192;2023-11-19T06:00:42;5.10;99.90
9810;DHT22;4944;52.514;13.192;2023-11-19T06:03:09;5.10;99.90
9810;DHT22;4944;52.514;13.192;2023-11-19T06:05:35;5.10;99.90
9810;DHT22;4944;52.514;13.192;2023-11-19T06:08:02;5.10;99.90
9810;DHT22;4944;52.514;13.192;2023-11-19T06:10:29;5.10;99.90
9810;DHT22;4944;52.514;13.192;2023-11-19T06:12:59;5.10;99.90
9810;DHT22;4944;52.514;13.192;2023-11-19T06:15:30;5.10;99.90
9810;DHT22;4944;52.514;13.192;2023-11-19T06:17:58;5.10;99.90
9810;DHT22;4944;52.514;13.192;2023-11-19T06:20:27;5.10;99.90
9810;DHT22;4944;52.514;13.192;2023-11-19T06:22:54;5.10;99.90
9810;DHT22;4944;52.514;13.192;2023-11-19T06:25:22;5.10;99.90
9810;DHT22;4944;52.514;13.192;2023-11-19T06:27:49;5.10;99.90
9810;DHT22;4944;52.514;13.192;2023-11-19T06:30:18;5.20;99.90
9810;DHT22;4944;52.514;13.192;2023-11-19T06:32:45;5.20;99.90
9810;DHT22;4944;52.514;13.192;2023-11-19T06:35:12;5.20;99.90
9810;DHT22;4944;52.514;13.192;2023-11-19T06:37:40;5.20;99.90
9810;DHT22;4944;52.514;13.192;2023-11-19T06:40:08;5.30;99.90
9810;DHT22;4944;52.514;13.192;2023-11-19T06:42:36;5.20;99.90
9810;DHT22;4944;52.514;13.192;2023-11-19T06:45:03;5.20;99.90
9810;DHT22;4944;52.514;13.192;2023-11-19T06:47:33;5.20;99.90
9810;DHT22;4944;52.514;13.192;2023-11-19T06:50:00;5.30;99.90
9810;DHT22;4944;52.514;13.192;2023-11-19T06:52:26;5.30;99.90
9810;DHT22;4944;52.514;13.192;2023-11-19T06:54:54;5.30;99.90
9810;DHT22;4944;52.514;13.192;2023-11-19T06:57:21;5.30;99.90
9810;DHT22;4944;52.514;13.192;2023-11-19T06:59:49;5.30;99.90
9810;DHT22;4944;52.514;13.192;2023-11-19T07:02:16;5.30;99.90
9810;DHT22;4944;52.514;13.192;2023-11-19T07:04:44;5.30;99.90
9810;DHT22;4944;52.514;13.192;2023-11-19T07:07:11;5.30;99.90
9810;DHT22;4944;52.514;13.192;2023-11-19T07:09:40;5.30;99.90
9810;DHT22;4944;52.514;13.192;2023-11-19T07:12:07;5.40;99.90
9810;DHT22;4944;52.514;13.192;2023-11-19T07:14:34;5.40;99.90
9810;DHT22;4944;52.514;13.192;2023-11-19T07:17:01;5.40;99.90
9810;DHT22;4944;52.514;13.192;2023-11-19T07:19:28;5.40;99.90
9810;DHT22;4944;52.514;13.192;2023-11-19T07:21:56;5.40;99.90
9810;DHT22;4944;52.514;13.192;2023-11-19T07:24:23;5.40;99.90
9810;DHT22;4944;52.514;13.192;2023-11-19T07:26:50;5.50;99.90
9810;DHT22;4944;52.514;13.192;2023-11-19T07:29:17;5.50;99.90
9810;DHT22;4944;52.514;13.192;2023-11-19T07:31:44;5.50;99.90
9810;DHT22;4944;52.514;13.192;2023-11-19T07:34:11;5.40;99.90
9810;DHT22;4944;52.514;13.192;2023-11-19T07:36:39;5.50;99.90
9810;DHT22;4944;52.514;13.192;2023-11-19T07:39:08;5.50;99.90
9810;DHT22;4944;52.514;13.192;2023-11-19T07:41:36;5.60;99.90
9810;DHT22;4944;52.514;13.192;2023-11-19T07:44:03;5.60;99.90
9810;DHT22;4944;52.514;13.192;2023-11-19T07:46:30;5.70;99.90
9810;DHT22;4944;52.514;13.192;2023-11-19T07:48:57;5.70;99.90
9810;DHT22;4944;52.514;13.192;2023-11-19T07:51:24;5.70;99.90
9810;DHT22;4944;52.514;13.192;2023-11-19T07:53:51;5.70;99.90
9810;DHT22;4944;52.514;13.192;2023-11-19T07:56:19;5.70;99.90
9810;DHT22;4944;52.514;13.192;2023-11-19T07:58:46;5.80;99.90
9810;DHT22;4944;52.514;13.192;2023-11-19T08:01:15;5.80;99.90
9810;DHT22;4944;52.514;13.192;2023-11-19T08:03:42;5.80;99.90
9810;DHT22;4944;52.514;13.192;2023-11-19T08:06:09;5.80;99.90
9810;DHT22;4944;52.514;13.192;2023-11-19T08:08:37;5.90;99.90
9810;DHT22;4944;52.514;13.192;2023-11-19T08:11:04;5.90;99.90
9810;DHT22;4944;52.514;13.192;2023-11-19T08:13:33;5.90;99.90
9810;DHT22;4944;52.514;13.192;2023-11-19T08:16:00;6.00;99.90
9810;DHT22;4944;52.514;13.192;2023-11-19T08:18:27;6.00;99.90
9810;DHT22;4944;52.514;13.192;2023-11-19T08:20:54;6.10;99.90
9810;DHT22;4944;52.514;13.192;2023-11-19T08:23:22;6.10;99.90
9810;DHT22;4944;52.514;13.192;2023-11-19T08:25:51;6.10;99.90
9810;DHT22;4944;52.514;13.192;2023-11-19T08:28:18;6.10;99.90
9810;DHT22;4944;52.514;13.192;2023-11-19T08:30:46;6.20;99.90
9810;DHT22;4944;52.514;13.192;2023-11-19T08:33:13;6.20;99.90
9810;DHT22;4944;52.514;13.192;2023-11-19T08:35:40;6.20;99.90
9810;DHT22;4944;52.514;13.192;2023-11-19T08:38:07;6.30;99.90
9810;DHT22;4944;52.514;13.192;2023-11-19T08:40:34;6.30;99.90
9810;DHT22;4944;52.514;13.192;2023-11-19T08:43:01;6.30;99.90
9810;DHT22;4944;52.514;13.192;2023-11-19T08:45:28;6.40;99.90
9810;DHT22;4944;52.514;13.192;2023-11-19T08:47:57;6.40;99.90
9810;DHT22;4944;52.514;13.192;2023-11-19T08:50:23;6.40;99.90
9810;DHT22;4944;52.514;13.192;2023-11-19T08:52:50;6.50;99.90
9810;DHT22;4944;52.514;13.192;2023-11-19T08:55:18;6.50;99.90
9810;DHT22;4944;52.514;13.192;2023-11-19T08:57:44;6.50;99.90
9810;DHT22;4944;52.514;13.192;2023-11-19T09:00:12;6.50;99.90
9810;DHT22;4944;52.514;13.192;2023-11-19T09:02:39;6.60;99.90
9810;DHT22;4944;52.514;13.192;2023-11-19T09:05:08;6.70;99.90
9810;DHT22;4944;52.514;13.192;2023-11-19T09:07:35;6.70;99.90
9810;DHT22;4944;52.514;13.192;2023-11-19T09:10:02;6.70;99.90
9810;DHT22;4944;52.514;13.192;2023-11-19T09:12:31;6.70;99.90
9810;DHT22;4944;52.514;13.192;2023-11-19T09:14:58;6.80;99.90
9810;DHT22;4944;52.514;13.192;2023-11-19T09:17:27;6.70;99.90
9810;DHT22;4944;52.514;13.192;2023-11-19T09:19:54;6.80;99.90
9810;DHT22;4944;52.514;13.192;2023-11-19T09:22:22;6.80;99.90
9810;DHT22;4944;52.514;13.192;2023-11-19T09:24:50;6.90;99.90
9810;DHT22;4944;52.514;13.192;2023-11-19T09:27:17;6.90;99.90
9810;DHT22;4944;52.514;13.192;2023-11-19T09:29:44;7.10;99.90
9810;DHT22;4944;52.514;13.192;2023-11-19T09:32:12;7.20;99.90
9810;DHT22;4944;52.514;13.192;2023-11-19T09:34:39;7.20;99.90
9810;DHT22;4944;52.514;13.192;2023-11-19T09:37:06;7.20;99.90
9810;DHT22;4944;52.514;13.192;2023-11-19T09:39:34;7.40;99.90
9810;DHT22;4944;52.514;13.192;2023-11-19T09:42:01;7.50;99.90
9810;DHT22;4944;52.514;13.192;2023-11-19T09:44:28;7.70;99.90
9810;DHT22;4944;52.514;13.192;2023-11-19T09:46:58;7.90;99.90
9810;DHT22;4944;52.514;13.192;2023-11-19T09:49:26;8.00;99.90
9810;DHT22;4944;52.514;13.192;2023-11-19T09:51:54;8.10;99.90
9810;DHT22;4944;52.514;13.192;2023-11-19T09:54:21;8.20;99.90
9810;DHT22;4944;52.514;13.192;2023-11-19T09:56:49;8.40;99.90
9810;DHT22;4944;52.514;13.192;2023-11-19T09:59:17;8.40;99.90
9810;DHT22;4944;52.514;13.192;2023-11-19T10:01:45;8.50;99.90
9810;DHT22;4944;52.514;13.192;2023-11-19T10:04:15;8.30;99.90
9810;DHT22;4944;52.514;13.192;2023-11-19T10:06:43;8.50;99.90
9810;DHT22;4944;52.514;13.192;2023-11-19T10:09:12;8.40;99.90
9810;DHT22;4944;52.514;13.192;2023-11-19T10:11:40;8.70;99.90
9810;DHT22;4944;52.514;13.192;2023-11-19T10:14:09;8.80;99.90
9810;DHT22;4944;52.514;13.192;2023-11-19T10:16:38;8.70;99.90
9810;DHT22;4944;52.514;13.192;2023-11-19T10:19:05;8.80;99.90
9810;DHT22;4944;52.514;13.192;2023-11-19T10:21:32;9.00;99.90
9810;DHT22;4944;52.514;13.192;2023-11-19T10:24:00;9.10;99.90
9810;DHT22;4944;52.514;13.192;2023-11-19T10:26:27;9.30;99.90
9810;DHT22;4944;52.514;13.192;2023-11-19T10:28:55;9.40;99.90
9810;DHT22;4944;52.514;13.192;2023-11-19T10:31:24;9.80;99.90
9810;DHT22;4944;52.514;13.192;2023-11-19T10:33:52;10.10;99.90
9810;DHT22;4944;52.514;13.192;2023-11-19T10:36:19;10.30;99.90
9810;DHT22;4944;52.514;13.192;2023-11-19T10:38:53;10.40;99.90
9810;DHT22;4944;52.514;13.192;2023-11-19T10:41:30;10.50;99.90
9810;DHT22;4944;52.514;13.192;2023-11-19T10:43:57;10.50;99.90
9810;DHT22;4944;52.514;13.192;2023-11-19T10:46:36;10.50;99.90
9810;DHT22;4944;52.514;13.192;2023-11-19T10:49:04;10.60;99.90
9810;DHT22;4944;52.514;13.192;2023-11-19T10:51:32;10.60;99.90
9810;DHT22;4944;52.514;13.192;2023-11-19T10:54:02;10.60;99.90
9810;DHT22;4944;52.514;13.192;2023-11-19T10:56:32;10.60;99.90
9810;DHT22;4944;52.514;13.192;2023-11-19T10:58:59;10.60;99.90
9810;DHT22;4944;52.514;13.192;2023-11-19T11:01:38;10.60;99.90
9810;DHT22;4944;52.514;13.192;2023-11-19T11:04:08;10.60;99.90
9810;DHT22;4944;52.514;13.192;2023-11-19T11:06:40;10.50;99.90
9810;DHT22;4944;52.514;13.192;2023-11-19T11:09:07;10.60;99.90
9810;DHT22;4944;52.514;13.192;2023-11-19T11:11:37;10.50;99.90
9810;DHT22;4944;52.514;13.192;2023-11-19T11:14:05;10.50;99.90
9810;DHT22;4944;52.514;13.192;2023-11-19T11:16:34;10.50;99.90
9810;DHT22;4944;52.514;13.192;2023-11-19T11:19:02;10.50;99.90
9810;DHT22;4944;52.514;13.192;2023-11-19T11:21:30;10.60;99.90
9810;DHT22;4944;52.514;13.192;2023-11-19T11:24:12;10.70;99.90
9810;DHT22;4944;52.514;13.192;2023-11-19T11:27:10;10.90;99.90
9810;DHT22;4944;52.514;13.192;2023-11-19T11:29:47;11.20;99.90
9810;DHT22;4944;52.514;13.192;2023-11-19T11:32:23;11.30;99.90
9810;DHT22;4944;52.514;13.192;2023-11-19T11:35:16;11.50;99.90
9810;DHT22;4944;52.514;13.192;2023-11-19T11:37:47;11.70;99.90
9810;DHT22;4944;52.514;13.192;2023-11-19T11:40:16;12.00;99.90
9810;DHT22;4944;52.514;13.192;2023-11-19T11:42:44;12.10;99.90
9810;DHT22;4944;52.514;13.192;2023-11-19T11:45:12;12.20;99.90
9810;DHT22;4944;52.514;13.192;2023-11-19T11:51:05;12.10;99.90
9810;DHT22;4944;52.514;13.192;2023-11-19T11:53:35;12.00;99.90
9810;DHT22;4944;52.514;13.192;2023-11-19T11:56:02;11.80;99.90
9810;DHT22;4944;52.514;13.192;2023-11-19T11:58:32;11.80;99.90
9810;DHT22;4944;52.514;13.192;2023-11-19T12:01:01;11.70;99.90
9810;DHT22;4944;52.514;13.192;2023-11-19T12:03:31;11.70;99.90
9810;DHT22;4944;52.514;13.192;2023-11-19T12:05:58;11.70;99.90
9810;DHT22;4944;52.514;13.192;2023-11-19T12:08:28;11.70;99.90
9810;DHT22;4944;52.514;13.192;2023-11-19T12:10:57;11.70;99.90
9810;DHT22;4944;52.514;13.192;2023-11-19T12:13:29;11.60;99.90
9810;DHT22;4944;52.514;13.192;2023-11-19T12:16:10;11.60;99.90
9810;DHT22;4944;52.514;13.192;2023-11-19T12:18:39;11.60;99.90
9810;DHT22;4944;52.514;13.192;2023-11-19T12:21:07;11.60;99.90
9810;DHT22;4944;52.514;13.192;2023-11-19T12:23:46;11.50;99.90
9810;DHT22;4944;52.514;13.192;2023-11-19T12:26:41;11.50;99.90
9810;DHT22;4944;52.514;13.192;2023-11-19T12:29:09;11.50;99.90
9810;DHT22;4944;52.514;13.192;2023-11-19T12:31:36;11.40;99.90
9810;DHT22;4944;52.514;13.192;2023-11-19T12:34:09;11.40;99.90
9810;DHT22;4944;52.514;13.192;2023-11-19T12:36:38;11.40;99.90
9810;DHT22;4944;52.514;13.192;2023-11-19T12:39:08;11.40;99.90
9810;DHT22;4944;52.514;13.192;2023-11-19T12:41:56;11.40;99.90
9810;DHT22;4944;52.514;13.192;2023-11-19T12:44:24;11.50;99.90
9810;DHT22;4944;52.514;13.192;2023-11-19T12:47:02;11.50;99.90
9810;DHT22;4944;52.514;13.192;2023-11-19T12:49:29;11.60;99.90
9810;DHT22;4944;52.514;13.192;2023-11-19T12:51:56;11.60;99.90
9810;DHT22;4944;52.514;13.192;2023-11-19T12:54:34;11.60;99.90
9810;DHT22;4944;52.514;13.192;2023-11-19T12:57:01;11.50;99.90
9810;DHT22;4944;52.514;13.192;2023-11-19T12:59:28;11.50;99.90
9810;DHT22;4944;52.514;13.192;2023-11-19T13:01:55;11.40;99.90
9810;DHT22;4944;52.514;13.192;2023-11-19T13:04:22;11.40;99.90
9810;DHT22;4944;52.514;13.192;2023-11-19T13:06:50;11.40;99.90
9810;DHT22;4944;52.514;13.192;2023-11-19T13:09:23;11.40;99.90
9810;DHT22;4944;52.514;13.192;2023-11-19T13:11:52;11.50;99.90
9810;DHT22;4944;52.514;13.192;2023-11-19T13:14:20;11.50;99.90
9810;DHT22;4944;52.514;13.192;2023-11-19T13:16:47;11.50;99.90
9810;DHT22;4944;52.514;13.192;2023-11-19T13:19:15;11.60;99.90
9810;DHT22;4944;52.514;13.192;2023-11-19T13:21:44;11.60;99.90
9810;DHT22;4944;52.514;13.192;2023-11-19T13:24:12;11.50;99.90
9810;DHT22;4944;52.514;13.192;2023-11-19T13:26:39;11.50;99.90
9810;DHT22;4944;52.514;13.192;2023-11-19T13:29:07;11.60;99.90
9810;DHT22;4944;52.514;13.192;2023-11-19T13:31:36;11.50;99.90
9810;DHT22;4944;52.514;13.192;2023-11-19T13:34:03;11.50;99.90
9810;DHT22;4944;52.514;13.192;2023-11-19T13:36:32;11.50;99.90
9810;DHT22;4944;52.514;13.192;2023-11-19T13:38:59;11.50;99.90
9810;DHT22;4944;52.514;13.192;2023-11-19T13:41:26;11.40;99.90
9810;DHT22;4944;52.514;13.192;2023-11-19T13:43:53;11.40;99.90
9810;DHT22;4944;52.514;13.192;2023-11-19T13:46:22;11.30;99.90
9810;DHT22;4944;52.514;13.192;2023-11-19T13:48:49;11.30;99.90
9810;DHT22;4944;52.514;13.192;2023-11-19T13:51:16;11.20;99.90
9810;DHT22;4944;52.514;13.192;2023-11-19T13:53:43;11.30;99.90
9810;DHT22;4944;52.514;13.192;2023-11-19T13:56:10;11.30;99.90
9810;DHT22;4944;52.514;13.192;2023-11-19T13:58:37;11.30;99.90
9810;DHT22;4944;52.514;13.192;2023-11-19T14:01:06;11.30;99.90
9810;DHT22;4944;52.514;13.192;2023-11-19T14:03:34;11.30;99.90
9810;DHT22;4944;52.514;13.192;2023-11-19T14:06:01;11.20;99.90
9810;DHT22;4944;52.514;13.192;2023-11-19T14:08:28;11.20;99.90
9810;DHT22;4944;52.514;13.192;2023-11-19T14:10:55;11.10;99.90
9810;DHT22;4944;52.514;13.192;2023-11-19T14:13:22;11.20;99.90
9810;DHT22;4944;52.514;13.192;2023-11-19T14:15:49;11.20;99.90
9810;DHT22;4944;52.514;13.192;2023-11-19T14:18:16;11.10;99.90
9810;DHT22;4944;52.514;13.192;2023-11-19T14:20:44;11.20;99.90
9810;DHT22;4944;52.514;13.192;2023-11-19T14:23:11;11.20;99.90
9810;DHT22;4944;52.514;13.192;2023-11-19T14:25:38;11.10;99.90
9810;DHT22;4944;52.514;13.192;2023-11-19T14:28:05;11.10;99.90
9810;DHT22;4944;52.514;13.192;2023-11-19T14:30:33;11.20;99.90
9810;DHT22;4944;52.514;13.192;2023-11-19T14:33:00;11.20;99.90
9810;DHT22;4944;52.514;13.192;2023-11-19T14:35:28;11.20;99.90
9810;DHT22;4944;52.514;13.192;2023-11-19T14:37:57;11.30;99.90
9810;DHT22;4944;52.514;13.192;2023-11-19T14:40:23;11.30;99.90
9810;DHT22;4944;52.514;13.192;2023-11-19T14:42:50;11.30;99.90
9810;DHT22;4944;52.514;13.192;2023-11-19T14:45:18;11.30;99.90
9810;DHT22;4944;52.514;13.192;2023-11-19T14:47:45;11.30;99.90
9810;DHT22;4944;52.514;13.192;2023-11-19T14:50:12;11.30;99.90
9810;DHT22;4944;52.514;13.192;2023-11-19T14:52:38;11.30;99.90
9810;DHT22;4944;52.514;13.192;2023-11-19T14:55:07;11.20;99.90
9810;DHT22;4944;52.514;13.192;2023-11-19T14:57:35;11.30;99.90
9810;DHT22;4944;52.514;13.192;2023-11-19T15:00:05;11.20;99.90
9810;DHT22;4944;52.514;13.192;2023-11-19T15:02:39;11.20;99.90
9810;DHT22;4944;52.514;13.192;2023-11-19T15:05:06;11.10;99.90
9810;DHT22;4944;52.514;13.192;2023-11-19T15:07:35;11.20;99.90
9810;DHT22;4944;52.514;13.192;2023-11-19T15:10:02;11.20;99.90
9810;DHT22;4944;52.514;13.192;2023-11-19T15:12:36;11.10;99.90
9810;DHT22;4944;52.514;13.192;2023-11-19T15:15:06;11.10;99.90
9810;DHT22;4944;52.514;13.192;2023-11-19T15:17:34;11.10;99.90
9810;DHT22;4944;52.514;13.192;2023-11-19T15:20:02;11.10;99.90
9810;DHT22;4944;52.514;13.192;2023-11-19T15:22:29;11.10;99.90
9810;DHT22;4944;52.514;13.192;2023-11-19T15:24:55;11.00;99.90
9810;DHT22;4944;52.514;13.192;2023-11-19T15:27:22;11.00;99.90
9810;DHT22;4944;52.514;13.192;2023-11-19T15:29:51;10.90;99.90
9810;DHT22;4944;52.514;13.192;2023-11-19T15:32:18;10.90;99.90
9810;DHT22;4944;52.514;13.192;2023-11-19T15:34:45;10.90;99.90
9810;DHT22;4944;52.514;13.192;2023-11-19T15:37:11;10.80;99.90
9810;DHT22;4944;52.514;13.192;2023-11-19T15:39:40;10.80;99.90
9810;DHT22;4944;52.514;13.192;2023-11-19T15:42:07;10.80;99.90
9810;DHT22;4944;52.514;13.192;2023-11-19T15:44:36;10.70;99.90
9810;DHT22;4944;52.514;13.192;2023-11-19T15:47:04;10.70;99.90
9810;DHT22;4944;52.514;13.192;2023-11-19T15:49:31;10.80;99.90
9810;DHT22;4944;52.514;13.192;2023-11-19T15:51:58;10.80;99.90
9810;DHT22;4944;52.514;13.192;2023-11-19T15:54:25;10.70;99.90
9810;DHT22;4944;52.514;13.192;2023-11-19T15:56:52;10.80;99.90
9810;DHT22;4944;52.514;13.192;2023-11-19T15:59:19;10.80;99.90
9810;DHT22;4944;52.514;13.192;2023-11-19T16:01:46;10.90;99.90
9810;DHT22;4944;52.514;13.192;2023-11-19T16:04:15;10.90;99.90
9810;DHT22;4944;52.514;13.192;2023-11-19T16:06:41;10.80;99.90